sensor_id;sensor_type;location;lat;lon;timestamp;pressure;altitude;pressure_sealevel;temperature;humidity
27840;BME280;15207;42.182;24.308;2023-03-23T00:01:12;99239.94;;;7.30;100.00
27840;BME280;15207;42.182;24.308;2023-03-23T00:03:40;99241.75;;;7.29;100.00
27840;BME280;15207;42.182;24.308;2023-03-23T00:06:07;99238.66;;;7.35;100.00
27840;BME280;15207;42.182;24.308;2023-03-23T00:08:34;99241.47;;;7.34;100.00
27840;BME280;15207;42.182;24.308;2023-03-23T00:11:20;99239.97;;;7.43;100.00
27840;BME280;15207;42.182;24.308;2023-03-23T00:13:48;99246.59;;;7.50;100.00
27840;BME280;15207;42.182;24.308;2023-03-23T00:16:18;99243.69;;;7.40;100.00
27840;BME280;15207;42.182;24.308;2023-03-23T00:18:49;99248.00;;;7.15;100.00
27840;BME280;15207;42.182;24.308;2023-03-23T00:21:21;99255.03;;;7.16;100.00
27840;BME280;15207;42.182;24.308;2023-03-23T00:23:59;99243.34;;;7.32;100.00
27840;BME280;15207;42.182;24.308;2023-03-23T00:26:24;99247.28;;;7.26;100.00
27840;BME280;15207;42.182;24.308;2023-03-23T00:28:53;99233.75;;;7.29;100.00
27840;BME280;15207;42.182;24.308;2023-03-23T00:31:19;99232.31;;;7.10;100.00
27840;BME280;15207;42.182;24.308;2023-03-23T00:33:44;99237.53;;;7.12;100.00
27840;BME280;15207;42.182;24.308;2023-03-23T00:36:11;99232.16;;;7.26;100.00
27840;BME280;15207;42.182;24.308;2023-03-23T00:38:38;99234.53;;;7.31;100.00
27840;BME280;15207;42.182;24.308;2023-03-23T00:41:05;99231.94;;;7.30;100.00
27840;BME280;15207;42.182;24.308;2023-03-23T00:43:31;99229.56;;;7.25;100.00
27840;BME280;15207;42.182;24.308;2023-03-23T00:45:58;99232.47;;;6.94;100.00
27840;BME280;15207;42.182;24.308;2023-03-23T00:48:27;99231.50;;;6.95;100.00
27840;BME280;15207;42.182;24.308;2023-03-23T00:50:53;99230.97;;;6.90;100.00
27840;BME280;15207;42.182;24.308;2023-03-23T00:53:22;99230.31;;;6.86;100.00
27840;BME280;15207;42.182;24.308;2023-03-23T00:55:48;99230.19;;;6.60;100.00
27840;BME280;15207;42.182;24.308;2023-03-23T00:58:15;99231.09;;;6.59;100.00
27840;BME280;15207;42.182;24.308;2023-03-23T01:00:42;99227.16;;;6.52;100.00
27840;BME280;15207;42.182;24.308;2023-03-23T01:03:09;99226.03;;;6.42;100.00
27840;BME280;15207;42.182;24.308;2023-03-23T01:05:39;99240.84;;;6.46;100.00
27840;BME280;15207;42.182;24.308;2023-03-23T01:08:05;99240.63;;;6.49;100.00
27840;BME280;15207;42.182;24.308;2023-03-23T01:10:31;99238.53;;;6.40;100.00
27840;BME280;15207;42.182;24.308;2023-03-23T01:12:59;99237.16;;;6.34;100.00
27840;BME280;15207;42.182;24.308;2023-03-23T01:15:27;99233.44;;;6.37;100.00
27840;BME280;15207;42.182;24.308;2023-03-23T01:17:52;99237.63;;;6.26;100.00
27840;BME280;15207;42.182;24.308;2023-03-23T01:20:18;99228.03;;;6.38;100.00
27840;BME280;15207;42.182;24.308;2023-03-23T01:22:44;99225.72;;;6.32;100.00
27840;BME280;15207;42.182;24.308;2023-03-23T01:25:11;99224.97;;;6.30;100.00
27840;BME280;15207;42.182;24.308;2023-03-23T01:27:37;99229.16;;;6.19;100.00
27840;BME280;15207;42.182;24.308;2023-03-23T01:30:05;99230.47;;;6.12;100.00
27840;BME280;15207;42.182;24.308;2023-03-23T01:32:31;99226.38;;;5.92;100.00
27840;BME280;15207;42.182;24.308;2023-03-23T01:34:57;99230.72;;;5.93;100.00
27840;BME280;15207;42.182;24.308;2023-03-23T01:37:23;99227.50;;;6.02;100.00
27840;BME280;15207;42.182;24.308;2023-03-23T01:39:53;99225.47;;;5.77;100.00
27840;BME280;15207;42.182;24.308;2023-03-23T01:42:20;99221.78;;;5.79;100.00
27840;BME280;15207;42.182;24.308;2023-03-23T01:47:11;99233.28;;;5.80;100.00
27840;BME280;15207;42.182;24.308;2023-03-23T01:49:41;99226.94;;;5.82;100.00
27840;BME280;15207;42.182;24.308;2023-03-23T01:52:16;99227.59;;;5.86;100.00
27840;BME280;15207;42.182;24.308;2023-03-23T01:54:46;99222.81;;;5.77;100.00
27840;BME280;15207;42.182;24.308;2023-03-23T01:57:19;99228.03;;;5.64;100.00
27840;BME280;15207;42.182;24.308;2023-03-23T01:59:49;99231.91;;;5.58;100.00
27840;BME280;15207;42.182;24.308;2023-03-23T02:02:16;99230.09;;;5.59;100.00
27840;BME280;15207;42.182;24.308;2023-03-23T02:04:42;99234.66;;;5.56;100.00
27840;BME280;15207;42.182;24.308;2023-03-23T02:07:09;99231.81;;;5.60;100.00
27840;BME280;15207;42.182;24.308;2023-03-23T02:09:36;99238.31;;;5.70;100.00
27840;BME280;15207;42.182;24.308;2023-03-23T02:12:02;99233.47;;;5.62;100.00
27840;BME280;15207;42.182;24.308;2023-03-23T02:14:28;99233.00;;;5.70;100.00
27840;BME280;15207;42.182;24.308;2023-03-23T02:36:02;99252.44;;;5.09;100.00
27840;BME280;15207;42.182;24.308;2023-03-23T02:38:34;99254.13;;;4.94;100.00
27840;BME280;15207;42.182;24.308;2023-03-23T02:41:01;99250.72;;;5.08;100.00
27840;BME280;15207;42.182;24.308;2023-03-23T02:43:30;99247.09;;;5.25;100.00
27840;BME280;15207;42.182;24.308;2023-03-23T02:45:57;99244.16;;;5.30;100.00
27840;BME280;15207;42.182;24.308;2023-03-23T02:48:28;99235.31;;;5.29;100.00
27840;BME280;15207;42.182;24.308;2023-03-23T02:50:55;99229.78;;;5.18;100.00
27840;BME280;15207;42.182;24.308;2023-03-23T02:53:24;99236.41;;;5.11;100.00
27840;BME280;15207;42.182;24.308;2023-03-23T02:55:52;99233.22;;;5.20;100.00
27840;BME280;15207;42.182;24.308;2023-03-23T02:58:20;99240.69;;;5.13;100.00
27840;BME280;15207;42.182;24.308;2023-03-23T03:00:49;99230.81;;;5.15;100.00
27840;BME280;15207;42.182;24.308;2023-03-23T03:03:21;99242.47;;;5.29;100.00
27840;BME280;15207;42.182;24.308;2023-03-23T03:08:49;99255.84;;;5.11;100.00
27840;BME280;15207;42.182;24.308;2023-03-23T03:11:13;99245.94;;;4.83;100.00
27840;BME280;15207;42.182;24.308;2023-03-23T03:13:50;99249.44;;;4.67;100.00
27840;BME280;15207;42.182;24.308;2023-03-23T03:18:44;99245.59;;;4.57;100.00
27840;BME280;15207;42.182;24.308;2023-03-23T03:21:14;99249.13;;;4.57;100.00
27840;BME280;15207;42.182;24.308;2023-03-23T03:23:44;99251.06;;;4.54;100.00
27840;BME280;15207;42.182;24.308;2023-03-23T03:26:12;99255.34;;;4.56;100.00
27840;BME280;15207;42.182;24.308;2023-03-23T03:28:45;99252.44;;;4.61;100.00
27840;BME280;15207;42.182;24.308;2023-03-23T03:31:16;99249.00;;;4.59;100.00
27840;BME280;15207;42.182;24.308;2023-03-23T03:33:43;99243.63;;;4.60;100.00
27840;BME280;15207;42.182;24.308;2023-03-23T03:36:18;99251.84;;;4.56;100.00
27840;BME280;15207;42.182;24.308;2023-03-23T03:38:45;99250.09;;;4.39;100.00
27840;BME280;15207;42.182;24.308;2023-03-23T03:41:12;99256.72;;;4.63;100.00
27840;BME280;15207;42.182;24.308;2023-03-23T03:43:38;99260.06;;;4.67;100.00
27840;BME280;15207;42.182;24.308;2023-03-23T03:46:04;99253.56;;;4.73;100.00
27840;BME280;15207;42.182;24.308;2023-03-23T03:48:29;99254.56;;;4.54;100.00
27840;BME280;15207;42.182;24.308;2023-03-23T03:50:55;99260.03;;;4.51;100.00
27840;BME280;15207;42.182;24.308;2023-03-23T03:53:24;99254.66;;;4.69;100.00
27840;BME280;15207;42.182;24.308;2023-03-23T03:55:50;99262.19;;;4.60;100.00
27840;BME280;15207;42.182;24.308;2023-03-23T03:58:16;99264.16;;;4.57;100.00
27840;BME280;15207;42.182;24.308;2023-03-23T04:00:42;99255.16;;;4.43;100.00
27840;BME280;15207;42.182;24.308;2023-03-23T04:03:08;99263.09;;;4.43;100.00
27840;BME280;15207;42.182;24.308;2023-03-23T04:05:34;99268.88;;;4.52;100.00
27840;BME280;15207;42.182;24.308;2023-03-23T04:08:02;99267.50;;;4.60;100.00
27840;BME280;15207;42.182;24.308;2023-03-23T04:10:29;99267.75;;;4.72;100.00
27840;BME280;15207;42.182;24.308;2023-03-23T04:12:55;99270.84;;;4.80;100.00
27840;BME280;15207;42.182;24.308;2023-03-23T04:15:21;99267.59;;;5.07;100.00
27840;BME280;15207;42.182;24.308;2023-03-23T04:17:47;99267.75;;;5.20;100.00
27840;BME280;15207;42.182;24.308;2023-03-23T04:20:12;99269.03;;;5.13;100.00
27840;BME280;15207;42.182;24.308;2023-03-23T04:22:47;99265.09;;;5.20;100.00
27840;BME280;15207;42.182;24.308;2023-03-23T04:25:17;99270.94;;;5.11;100.00
27840;BME280;15207;42.182;24.308;2023-03-23T04:27:46;99266.06;;;5.03;100.00
27840;BME280;15207;42.182;24.308;2023-03-23T04:30:18;99272.47;;;5.15;100.00
27840;BME280;15207;42.182;24.308;2023-03-23T04:32:45;99272.28;;;5.18;100.00
27840;BME280;15207;42.182;24.308;2023-03-23T04:35:13;99272.63;;;5.28;100.00
27840;BME280;15207;42.182;24.308;2023-03-23T04:37:40;99273.44;;;5.28;100.00
27840;BME280;15207;42.182;24.308;2023-03-23T04:40:07;99272.41;;;5.31;100.00
27840;BME280;15207;42.182;24.308;2023-03-23T04:42:37;99271.00;;;5.25;100.00
27840;BME280;15207;42.182;24.308;2023-03-23T04:45:05;99275.28;;;5.28;100.00
27840;BME280;15207;42.182;24.308;2023-03-23T04:47:33;99283.09;;;5.15;100.00
27840;BME280;15207;42.182;24.308;2023-03-23T04:49:59;99278.47;;;5.02;100.00
27840;BME280;15207;42.182;24.308;2023-03-23T04:52:26;99286.25;;;4.89;100.00
27840;BME280;15207;42.182;24.308;2023-03-23T04:54:54;99282.97;;;5.16;100.00
27840;BME280;15207;42.182;24.308;2023-03-23T04:57:21;99278.25;;;5.22;100.00
27840;BME280;15207;42.182;24.308;2023-03-23T04:59:47;99288.19;;;5.34;100.00
27840;BME280;15207;42.182;24.308;2023-03-23T05:02:13;99292.91;;;5.45;100.00
27840;BME280;15207;42.182;24.308;2023-03-23T05:04:39;99287.31;;;5.34;100.00
27840;BME280;15207;42.182;24.308;2023-03-23T05:07:07;99286.22;;;5.38;100.00
27840;BME280;15207;42.182;24.308;2023-03-23T05:09:33;99288.63;;;5.57;100.00
27840;BME280;15207;42.182;24.308;2023-03-23T05:12:08;99284.25;;;5.72;100.00
27840;BME280;15207;42.182;24.308;2023-03-23T05:14:34;99290.09;;;5.93;100.00
27840;BME280;15207;42.182;24.308;2023-03-23T05:17:00;99289.56;;;6.17;100.00
27840;BME280;15207;42.182;24.308;2023-03-23T05:19:26;99294.31;;;6.27;100.00
27840;BME280;15207;42.182;24.308;2023-03-23T05:21:56;99291.28;;;6.47;100.00
27840;BME280;15207;42.182;24.308;2023-03-23T05:24:22;99299.47;;;6.44;100.00
27840;BME280;15207;42.182;24.308;2023-03-23T05:26:47;99295.75;;;6.18;100.00
27840;BME280;15207;42.182;24.308;2023-03-23T05:29:14;99303.16;;;6.71;100.00
27840;BME280;15207;42.182;24.308;2023-03-23T05:31:41;99306.59;;;7.15;99.28
27840;BME280;15207;42.182;24.308;2023-03-23T05:34:06;99310.00;;;7.45;97.33
27840;BME280;15207;42.182;24.308;2023-03-23T05:36:32;99298.50;;;7.85;95.40
27840;BME280;15207;42.182;24.308;2023-03-23T05:38:57;99306.00;;;8.05;94.40
27840;BME280;15207;42.182;24.308;2023-03-23T05:41:25;99312.19;;;8.19;93.81
27840;BME280;15207;42.182;24.308;2023-03-23T05:43:51;99319.13;;;8.22;94.01
27840;BME280;15207;42.182;24.308;2023-03-23T05:46:16;99318.16;;;8.75;92.87
27840;BME280;15207;42.182;24.308;2023-03-23T05:48:42;99308.06;;;9.04;91.35
27840;BME280;15207;42.182;24.308;2023-03-23T05:51:07;99311.63;;;9.29;90.83
27840;BME280;15207;42.182;24.308;2023-03-23T05:53:33;99312.97;;;9.35;90.45
27840;BME280;15207;42.182;24.308;2023-03-23T05:56:01;99314.72;;;9.72;89.50
27840;BME280;15207;42.182;24.308;2023-03-23T05:58:27;99313.34;;;9.66;89.76
27840;BME280;15207;42.182;24.308;2023-03-23T06:00:52;99314.03;;;9.81;89.92
27840;BME280;15207;42.182;24.308;2023-03-23T06:03:18;99326.00;;;10.00;88.85
27840;BME280;15207;42.182;24.308;2023-03-23T06:05:44;99327.63;;;10.25;87.82
27840;BME280;15207;42.182;24.308;2023-03-23T06:08:10;99324.50;;;10.43;87.71
27840;BME280;15207;42.182;24.308;2023-03-23T06:10:37;99314.81;;;10.53;87.25
27840;BME280;15207;42.182;24.308;2023-03-23T06:13:03;99325.50;;;10.53;86.88
27840;BME280;15207;42.182;24.308;2023-03-23T06:15:29;99329.41;;;10.49;88.84
27840;BME280;15207;42.182;24.308;2023-03-23T06:18:00;99318.31;;;10.54;89.03
27840;BME280;15207;42.182;24.308;2023-03-23T06:20:26;99325.84;;;11.06;87.61
27840;BME280;15207;42.182;24.308;2023-03-23T06:22:52;99323.88;;;11.31;86.03
27840;BME280;15207;42.182;24.308;2023-03-23T06:25:17;99327.38;;;11.31;85.63
27840;BME280;15207;42.182;24.308;2023-03-23T06:27:43;99321.09;;;11.09;86.74
27840;BME280;15207;42.182;24.308;2023-03-23T06:30:11;99328.28;;;11.09;87.84
27840;BME280;15207;42.182;24.308;2023-03-23T06:32:37;99334.88;;;10.93;87.25
27840;BME280;15207;42.182;24.308;2023-03-23T06:35:03;99330.72;;;10.89;88.00
27840;BME280;15207;42.182;24.308;2023-03-23T06:37:29;99343.91;;;10.92;87.68
27840;BME280;15207;42.182;24.308;2023-03-23T06:39:56;99335.84;;;11.04;88.24
27840;BME280;15207;42.182;24.308;2023-03-23T06:42:22;99322.53;;;11.25;87.82
27840;BME280;15207;42.182;24.308;2023-03-23T06:44:50;99328.78;;;11.58;85.70
27840;BME280;15207;42.182;24.308;2023-03-23T06:47:16;99325.22;;;11.90;84.97
27840;BME280;15207;42.182;24.308;2023-03-23T06:49:42;99327.16;;;12.21;83.05
27840;BME280;15207;42.182;24.308;2023-03-23T06:52:08;99334.59;;;12.60;81.17
27840;BME280;15207;42.182;24.308;2023-03-23T06:54:33;99337.38;;;12.90;80.20
27840;BME280;15207;42.182;24.308;2023-03-23T06:56:59;99333.25;;;13.27;78.32
27840;BME280;15207;42.182;24.308;2023-03-23T06:59:24;99333.47;;;13.65;77.21
27840;BME280;15207;42.182;24.308;2023-03-23T07:01:50;99340.31;;;13.79;75.79
27840;BME280;15207;42.182;24.308;2023-03-23T07:04:16;99339.00;;;14.02;75.22
27840;BME280;15207;42.182;24.308;2023-03-23T07:06:41;99330.34;;;14.28;74.02
27840;BME280;15207;42.182;24.308;2023-03-23T07:09:07;99332.00;;;14.49;73.89
27840;BME280;15207;42.182;24.308;2023-03-23T07:11:33;99336.88;;;14.74;72.30
27840;BME280;15207;42.182;24.308;2023-03-23T07:13:58;99333.47;;;14.81;71.04
27840;BME280;15207;42.182;24.308;2023-03-23T07:16:24;99340.25;;;14.86;71.04
27840;BME280;15207;42.182;24.308;2023-03-23T07:18:50;99329.78;;;14.73;71.69
27840;BME280;15207;42.182;24.308;2023-03-23T07:21:16;99338.59;;;14.65;73.03
27840;BME280;15207;42.182;24.308;2023-03-23T07:23:42;99331.63;;;14.24;73.58
27840;BME280;15207;42.182;24.308;2023-03-23T07:26:08;99338.16;;;14.02;76.03
27840;BME280;15207;42.182;24.308;2023-03-23T07:28:33;99340.84;;;14.02;75.52
27840;BME280;15207;42.182;24.308;2023-03-23T07:30:59;99334.91;;;13.88;77.02
27840;BME280;15207;42.182;24.308;2023-03-23T07:33:25;99329.66;;;13.87;77.72
27840;BME280;15207;42.182;24.308;2023-03-23T07:35:52;99338.41;;;14.28;75.55
27840;BME280;15207;42.182;24.308;2023-03-23T07:38:17;99332.97;;;14.48;75.07
27840;BME280;15207;42.182;24.308;2023-03-23T07:40:43;99337.28;;;14.79;72.70
27840;BME280;15207;42.182;24.308;2023-03-23T07:43:09;99339.22;;;14.97;70.74
27840;BME280;15207;42.182;24.308;2023-03-23T07:45:35;99340.31;;;15.04;70.67
27840;BME280;15207;42.182;24.308;2023-03-23T07:48:01;99339.41;;;15.13;69.42
27840;BME280;15207;42.182;24.308;2023-03-23T07:50:26;99347.25;;;15.06;70.23
27840;BME280;15207;42.182;24.308;2023-03-23T07:52:57;99333.63;;;15.08;72.30
27840;BME280;15207;42.182;24.308;2023-03-23T07:55:24;99339.41;;;14.85;71.29
27840;BME280;15207;42.182;24.308;2023-03-23T07:57:51;99338.84;;;14.81;72.37
27840;BME280;15207;42.182;24.308;2023-03-23T08:00:19;99336.75;;;15.03;72.58
27840;BME280;15207;42.182;24.308;2023-03-23T08:02:58;99330.38;;;15.04;72.78
27840;BME280;15207;42.182;24.308;2023-03-23T08:05:26;99341.16;;;15.32;72.10
27840;BME280;15207;42.182;24.308;2023-03-23T08:07:53;99333.63;;;15.72;71.39
27840;BME280;15207;42.182;24.308;2023-03-23T08:10:21;99334.78;;;15.88;68.59
27840;BME280;15207;42.182;24.308;2023-03-23T08:12:51;99338.75;;;16.12;69.35
27840;BME280;15207;42.182;24.308;2023-03-23T08:15:18;99338.78;;;16.20;67.66
27840;BME280;15207;42.182;24.308;2023-03-23T08:17:44;99333.81;;;16.34;67.79
27840;BME280;15207;42.182;24.308;2023-03-23T08:20:11;99326.03;;;16.57;67.96
27840;BME280;15207;42.182;24.308;2023-03-23T08:22:39;99327.22;;;16.89;64.77
27840;BME280;15207;42.182;24.308;2023-03-23T08:25:07;99334.69;;;16.96;63.35
27840;BME280;15207;42.182;24.308;2023-03-23T08:27:34;99329.19;;;17.14;64.50
27840;BME280;15207;42.182;24.308;2023-03-23T08:30:00;99333.00;;;17.46;60.75
27840;BME280;15207;42.182;24.308;2023-03-23T08:32:26;99334.72;;;17.55;60.92
27840;BME280;15207;42.182;24.308;2023-03-23T08:34:52;99332.25;;;17.19;59.44
27840;BME280;15207;42.182;24.308;2023-03-23T08:37:18;99328.94;;;17.34;60.32
27840;BME280;15207;42.182;24.308;2023-03-23T08:39:43;99328.94;;;17.42;60.03
27840;BME280;15207;42.182;24.308;2023-03-23T08:42:11;99326.81;;;17.70;56.54
27840;BME280;15207;42.182;24.308;2023-03-23T08:44:37;99321.53;;;18.02;54.48
27840;BME280;15207;42.182;24.308;2023-03-23T08:47:03;99327.50;;;18.06;53.07
27840;BME280;15207;42.182;24.308;2023-03-23T08:49:30;99317.84;;;18.11;51.73
27840;BME280;15207;42.182;24.308;2023-03-23T08:51:58;99315.34;;;18.10;50.16
27840;BME280;15207;42.182;24.308;2023-03-23T08:54:23;99313.97;;;18.31;49.99
27840;BME280;15207;42.182;24.308;2023-03-23T08:56:49;99314.94;;;18.38;48.51
27840;BME280;15207;42.182;24.308;2023-03-23T08:59:16;99311.63;;;18.76;48.23
27840;BME280;15207;42.182;24.308;2023-03-23T09:01:42;99321.97;;;18.81;45.08
27840;BME280;15207;42.182;24.308;2023-03-23T09:04:08;99316.72;;;18.71;45.24
27840;BME280;15207;42.182;24.308;2023-03-23T09:06:37;99315.59;;;18.48;45.11
27840;BME280;15207;42.182;24.308;2023-03-23T09:09:04;99311.69;;;18.51;43.70
27840;BME280;15207;42.182;24.308;2023-03-23T09:11:33;99308.63;;;18.62;46.11
27840;BME280;15207;42.182;24.308;2023-03-23T09:14:01;99308.13;;;19.39;44.04
27840;BME280;15207;42.182;24.308;2023-03-23T09:16:27;99302.25;;;19.82;40.66
27840;BME280;15207;42.182;24.308;2023-03-23T09:18:54;99299.75;;;19.95;39.55
27840;BME280;15207;42.182;24.308;2023-03-23T09:21:24;99296.28;;;20.10;39.69
27840;BME280;15207;42.182;24.308;2023-03-23T09:23:51;99294.06;;;19.67;38.20
27840;BME280;15207;42.182;24.308;2023-03-23T09:26:16;99299.00;;;19.87;40.10
27840;BME280;15207;42.182;24.308;2023-03-23T09:28:42;99298.81;;;19.88;37.25
27840;BME280;15207;42.182;24.308;2023-03-23T09:31:09;99294.06;;;19.67;37.45
27840;BME280;15207;42.182;24.308;2023-03-23T09:33:36;99291.88;;;19.86;38.93
27840;BME280;15207;42.182;24.308;2023-03-23T09:36:03;99293.91;;;19.83;38.30
27840;BME280;15207;42.182;24.308;2023-03-23T09:38:31;99295.00;;;19.98;39.28
27840;BME280;15207;42.182;24.308;2023-03-23T09:49:17;99294.31;;;19.25;38.91
27840;BME280;15207;42.182;24.308;2023-03-23T09:51:49;99287.66;;;18.96;38.91
27840;BME280;15207;42.182;24.308;2023-03-23T09:54:38;99292.63;;;18.76;40.10
27840;BME280;15207;42.182;24.308;2023-03-23T09:57:12;99288.25;;;18.67;39.81
27840;BME280;15207;42.182;24.308;2023-03-23T09:59:56;99279.72;;;18.38;40.97
27840;BME280;15207;42.182;24.308;2023-03-23T10:02:58;99283.06;;;18.48;40.04
27840;BME280;15207;42.182;24.308;2023-03-23T10:11:09;99277.00;;;18.46;39.25
27840;BME280;15207;42.182;24.308;2023-03-23T10:16:07;99271.50;;;18.63;39.77
27840;BME280;15207;42.182;24.308;2023-03-23T10:21:22;99274.97;;;18.40;40.23
27840;BME280;15207;42.182;24.308;2023-03-23T10:23:57;99270.53;;;18.56;38.58
27840;BME280;15207;42.182;24.308;2023-03-23T10:29:20;99267.69;;;18.32;39.12
27840;BME280;15207;42.182;24.308;2023-03-23T10:32:11;99261.75;;;18.29;38.87
27840;BME280;15207;42.182;24.308;2023-03-23T10:34:41;99262.66;;;18.13;38.93
27840;BME280;15207;42.182;24.308;2023-03-23T10:39:59;99260.28;;;17.84;39.34
27840;BME280;15207;42.182;24.308;2023-03-23T10:42:30;99250.63;;;18.07;40.07
27840;BME280;15207;42.182;24.308;2023-03-23T10:44:58;99250.09;;;17.95;39.78
27840;BME280;15207;42.182;24.308;2023-03-23T10:47:25;99244.34;;;18.23;40.33
27840;BME280;15207;42.182;24.308;2023-03-23T10:49:54;99247.56;;;18.27;39.49
27840;BME280;15207;42.182;24.308;2023-03-23T10:52:31;99243.84;;;18.03;39.66
27840;BME280;15207;42.182;24.308;2023-03-23T10:55:13;99238.72;;;18.41;40.17
27840;BME280;15207;42.182;24.308;2023-03-23T10:57:42;99242.63;;;18.39;38.31
27840;BME280;15207;42.182;24.308;2023-03-23T11:02:44;99239.06;;;18.30;38.80
27840;BME280;15207;42.182;24.308;2023-03-23T11:05:20;99231.84;;;18.62;38.91
27840;BME280;15207;42.182;24.308;2023-03-23T11:08:15;99238.22;;;18.29;38.73
27840;BME280;15207;42.182;24.308;2023-03-23T11:10:51;99229.13;;;17.89;39.99
27840;BME280;15207;42.182;24.308;2023-03-23T11:13:17;99242.66;;;18.05;40.05
27840;BME280;15207;42.182;24.308;2023-03-23T11:15:46;99234.03;;;18.02;40.23
27840;BME280;15207;42.182;24.308;2023-03-23T11:18:17;99232.00;;;17.95;40.25
27840;BME280;15207;42.182;24.308;2023-03-23T11:20:47;99231.66;;;17.82;40.56
27840;BME280;15207;42.182;24.308;2023-03-23T11:23:41;99228.97;;;17.90;40.35
27840;BME280;15207;42.182;24.308;2023-03-23T11:26:29;99222.69;;;17.98;39.75
27840;BME280;15207;42.182;24.308;2023-03-23T11:29:05;99218.81;;;17.76;39.78
27840;BME280;15207;42.182;24.308;2023-03-23T11:31:36;99215.09;;;17.68;40.75
27840;BME280;15207;42.182;24.308;2023-03-23T11:34:22;99222.00;;;17.96;40.34
27840;BME280;15207;42.182;24.308;2023-03-23T11:36:50;99210.16;;;18.14;39.86
27840;BME280;15207;42.182;24.308;2023-03-23T11:39:26;99215.03;;;18.35;39.62
27840;BME280;15207;42.182;24.308;2023-03-23T11:41:52;99211.94;;;18.38;39.29
27840;BME280;15207;42.182;24.308;2023-03-23T11:44:21;99207.25;;;18.23;39.58
27840;BME280;15207;42.182;24.308;2023-03-23T11:47:13;99210.09;;;18.30;39.67
27840;BME280;15207;42.182;24.308;2023-03-23T11:49:47;99209.78;;;18.25;39.04
27840;BME280;15207;42.182;24.308;2023-03-23T11:52:28;99214.91;;;17.95;40.11
27840;BME280;15207;42.182;24.308;2023-03-23T11:55:03;99210.00;;;18.07;39.73
27840;BME280;15207;42.182;24.308;2023-03-23T11:57:34;99205.94;;;17.86;40.61
27840;BME280;15207;42.182;24.308;2023-03-23T12:00:00;99201.38;;;17.70;40.82
27840;BME280;15207;42.182;24.308;2023-03-23T12:02:49;99198.31;;;17.81;42.86
27840;BME280;15207;42.182;24.308;2023-03-23T12:33:11;99187.53;;;18.38;40.41
27840;BME280;15207;42.182;24.308;2023-03-23T12:41:01;99180.69;;;18.10;40.64
27840;BME280;15207;42.182;24.308;2023-03-23T12:43:53;99173.75;;;18.16;40.61
27840;BME280;15207;42.182;24.308;2023-03-23T12:51:53;99165.72;;;18.31;40.67
27840;BME280;15207;42.182;24.308;2023-03-23T12:54:26;99167.28;;;18.26;40.55
27840;BME280;15207;42.182;24.308;2023-03-23T12:57:11;99166.81;;;18.54;40.29
27840;BME280;15207;42.182;24.308;2023-03-23T12:59:44;99170.53;;;18.53;39.69
27840;BME280;15207;42.182;24.308;2023-03-23T13:02:32;99163.84;;;18.32;40.06
27840;BME280;15207;42.182;24.308;2023-03-23T13:08:02;99158.09;;;18.67;39.77
27840;BME280;15207;42.182;24.308;2023-03-23T13:10:34;99155.78;;;18.55;40.10
27840;BME280;15207;42.182;24.308;2023-03-23T13:13:03;99164.63;;;18.49;40.71
27840;BME280;15207;42.182;24.308;2023-03-23T13:15:50;99171.19;;;18.23;40.42
27840;BME280;15207;42.182;24.308;2023-03-23T13:21:31;99166.63;;;17.98;40.96
27840;BME280;15207;42.182;24.308;2023-03-23T13:24:04;99171.72;;;18.10;41.30
27840;BME280;15207;42.182;24.308;2023-03-23T13:26:30;99164.69;;;18.32;41.09
27840;BME280;15207;42.182;24.308;2023-03-23T13:34:18;99175.66;;;18.47;41.34
27840;BME280;15207;42.182;24.308;2023-03-23T13:36:56;99168.94;;;18.35;41.46
27840;BME280;15207;42.182;24.308;2023-03-23T13:44:43;99167.53;;;17.82;42.42
27840;BME280;15207;42.182;24.308;2023-03-23T14:00:36;99162.28;;;17.64;43.29
27840;BME280;15207;42.182;24.308;2023-03-23T14:08:01;99169.38;;;17.82;43.15
27840;BME280;15207;42.182;24.308;2023-03-23T14:11:02;99173.44;;;17.69;44.49
27840;BME280;15207;42.182;24.308;2023-03-23T14:14:07;99170.56;;;17.71;44.02
27840;BME280;15207;42.182;24.308;2023-03-23T14:16:40;99162.97;;;17.66;44.12
27840;BME280;15207;42.182;24.308;2023-03-23T14:19:27;99164.34;;;17.62;44.40
27840;BME280;15207;42.182;24.308;2023-03-23T14:21:59;99167.19;;;17.61;44.21
27840;BME280;15207;42.182;24.308;2023-03-23T14:24:26;99170.28;;;17.57;44.76
27840;BME280;15207;42.182;24.308;2023-03-23T14:27:02;99165.50;;;17.51;44.25
27840;BME280;15207;42.182;24.308;2023-03-23T14:29:28;99173.63;;;17.60;44.18
27840;BME280;15207;42.182;24.308;2023-03-23T14:31:59;99172.31;;;17.47;44.32
27840;BME280;15207;42.182;24.308;2023-03-23T14:34:29;99167.22;;;17.44;44.83
27840;BME280;15207;42.182;24.308;2023-03-23T14:36:58;99160.63;;;17.55;44.21
27840;BME280;15207;42.182;24.308;2023-03-23T14:39:26;99166.53;;;17.50;44.62
27840;BME280;15207;42.182;24.308;2023-03-23T14:42:06;99150.97;;;17.36;44.55
27840;BME280;15207;42.182;24.308;2023-03-23T14:44:38;99157.06;;;17.29;45.57
27840;BME280;15207;42.182;24.308;2023-03-23T14:47:09;99161.31;;;17.32;45.63
27840;BME280;15207;42.182;24.308;2023-03-23T14:49:38;99160.78;;;17.37;45.02
27840;BME280;15207;42.182;24.308;2023-03-23T14:52:16;99156.72;;;17.16;45.46
27840;BME280;15207;42.182;24.308;2023-03-23T14:54:44;99158.06;;;17.20;45.39
27840;BME280;15207;42.182;24.308;2023-03-23T14:57:26;99158.09;;;17.28;45.14
27840;BME280;15207;42.182;24.308;2023-03-23T14:59:53;99155.72;;;17.09;45.97
27840;BME280;15207;42.182;24.308;2023-03-23T15:02:28;99160.19;;;16.83;48.12
27840;BME280;15207;42.182;24.308;2023-03-23T15:05:01;99161.19;;;16.74;49.55
27840;BME280;15207;42.182;24.308;2023-03-23T15:07:34;99169.03;;;16.50;50.28
27840;BME280;15207;42.182;24.308;2023-03-23T15:10:01;99168.72;;;16.53;50.76